createdAt,value
2018-11-06T00:00:20.212Z,81.20
2018-11-06T00:02:52.449Z,81.20
2018-11-06T00:05:20.165Z,81.20
2018-11-06T00:07:47.876Z,81.20
2018-11-06T00:10:15.632Z,81.30
2018-11-06T00:12:43.366Z,81.40
2018-11-06T00:15:11.084Z,81.50
2018-11-06T00:17:38.864Z,81.70
2018-11-06T00:20:08.972Z,81.80
2018-11-06T00:22:36.862Z,81.80
2018-11-06T00:25:05.441Z,81.80
2018-11-06T00:27:33.161Z,82.90
2018-11-06T00:30:00.870Z,81.90
2018-11-06T00:32:28.581Z,82.90
2018-11-06T00:34:56.314Z,82.90
2018-11-06T00:37:24.038Z,82.90
2018-11-06T00:39:51.716Z,83.00
2018-11-06T00:42:19.398Z,83.10
2018-11-06T00:44:47.146Z,83.00
2018-11-06T00:47:14.900Z,83.10
2018-11-06T00:49:42.650Z,83.10
2018-11-06T00:52:10.386Z,82.90
2018-11-06T00:54:38.071Z,82.90
2018-11-06T00:57:05.781Z,83.00
2018-11-06T00:59:33.462Z,83.00
2018-11-06T01:02:01.207Z,83.00
2018-11-06T01:04:28.909Z,83.00
2018-11-06T01:06:56.666Z,83.10
2018-11-06T01:09:24.401Z,83.00
2018-11-06T01:11:52.121Z,83.00
2018-11-06T01:14:19.877Z,83.00
2018-11-06T01:16:47.614Z,83.10
2018-11-06T01:19:15.342Z,83.00
2018-11-06T01:21:43.061Z,82.90
2018-11-06T01:24:10.768Z,82.80
2018-11-06T01:26:38.449Z,82.90
2018-11-06T01:29:06.388Z,83.40
2018-11-06T01:31:40.937Z,83.10
2018-11-06T01:34:08.652Z,83.20
2018-11-06T01:39:10.845Z,83.40
2018-11-06T01:41:38.767Z,83.60
2018-11-06T01:44:06.709Z,83.60
2018-11-06T01:46:34.454Z,83.70
2018-11-06T01:49:02.189Z,83.80
2018-11-06T01:51:29.889Z,84.00
2018-11-06T01:53:57.724Z,83.80
2018-11-06T01:56:25.415Z,84.60
2018-11-06T01:58:53.194Z,83.80
2018-11-06T02:01:20.904Z,84.40
2018-11-06T02:03:48.600Z,83.70
2018-11-06T02:06:16.298Z,83.70
2018-11-06T02:08:44.057Z,83.70
2018-11-06T02:11:11.759Z,83.60
2018-11-06T02:13:39.453Z,83.60
2018-11-06T02:16:07.657Z,83.70
2018-11-06T02:18:35.345Z,84.10
2018-11-06T02:21:03.157Z,83.90
2018-11-06T02:23:30.893Z,83.90
2018-11-06T02:25:58.614Z,84.00
2018-11-06T02:28:26.267Z,83.80
2018-11-06T02:30:53.974Z,83.80
2018-11-06T02:33:21.688Z,83.80
2018-11-06T02:35:49.427Z,83.80
2018-11-06T02:38:17.186Z,83.80
2018-11-06T02:40:44.857Z,83.80
2018-11-06T02:43:12.577Z,83.90
2018-11-06T02:45:40.258Z,84.50
2018-11-06T02:48:08.054Z,84.00
2018-11-06T02:50:35.772Z,84.00
2018-11-06T02:53:03.572Z,84.00
2018-11-06T02:55:31.291Z,84.00
2018-11-06T02:57:59.004Z,84.00
2018-11-06T03:00:26.684Z,83.90
2018-11-06T03:02:54.376Z,84.00
2018-11-06T03:05:22.104Z,84.00
2018-11-06T03:07:49.809Z,84.00
2018-11-06T03:10:17.726Z,83.90
2018-11-06T03:12:45.462Z,84.20
2018-11-06T03:15:13.983Z,84.20
2018-11-06T03:17:41.704Z,84.40
2018-11-06T03:20:10.329Z,84.70
2018-11-06T03:22:38.090Z,84.70
2018-11-06T03:25:06.318Z,85.60
2018-11-06T03:27:34.052Z,85.20
2018-11-06T03:30:01.786Z,85.00
2018-11-06T03:32:29.492Z,85.10
2018-11-06T03:34:57.217Z,85.20
2018-11-06T03:37:24.943Z,85.30
2018-11-06T03:39:52.662Z,85.50
2018-11-06T03:42:20.490Z,85.50
2018-11-06T03:44:48.214Z,85.70
2018-11-06T03:47:15.882Z,85.80
2018-11-06T03:49:43.602Z,85.70
2018-11-06T03:52:11.282Z,85.80
2018-11-06T03:54:39.015Z,85.90
2018-11-06T03:57:06.728Z,85.90
2018-11-06T03:59:34.474Z,85.90
2018-11-06T04:02:02.218Z,85.80
2018-11-06T04:04:29.902Z,86.00
2018-11-06T04:06:57.630Z,86.00
2018-11-06T04:09:25.315Z,86.10
2018-11-06T04:11:53.026Z,86.10
2018-11-06T04:14:20.755Z,86.00
2018-11-06T04:16:48.443Z,85.90
2018-11-06T04:19:16.158Z,85.80
2018-11-06T04:21:43.893Z,85.80
2018-11-06T04:24:12.993Z,85.70
2018-11-06T04:26:40.714Z,85.70
2018-11-06T04:29:09.024Z,86.10
2018-11-06T04:31:37.500Z,85.30
2018-11-06T04:34:05.412Z,86.10
2018-11-06T04:36:33.120Z,85.20
2018-11-06T04:39:00.829Z,85.20
2018-11-06T04:41:28.532Z,85.10
2018-11-06T04:43:56.245Z,85.10
2018-11-06T04:46:24.197Z,85.10
2018-11-06T04:48:52.389Z,84.90
2018-11-06T04:51:20.654Z,85.60
2018-11-06T04:53:48.378Z,84.80
2018-11-06T04:56:16.308Z,84.90
2018-11-06T04:58:44.034Z,85.00
2018-11-06T05:01:11.748Z,85.10
2018-11-06T05:03:45.383Z,85.10
2018-11-06T05:06:13.323Z,85.00
2018-11-06T05:08:41.038Z,84.80
2018-11-06T05:11:08.747Z,84.60
2018-11-06T05:13:36.470Z,84.60
2018-11-06T05:16:04.261Z,84.50
2018-11-06T05:18:32.001Z,84.40
2018-11-06T05:20:59.813Z,84.40
2018-11-06T05:23:27.554Z,84.50
2018-11-06T05:25:55.359Z,84.40
2018-11-06T05:28:23.080Z,84.50
2018-11-06T05:30:50.765Z,84.50
2018-11-06T05:33:18.449Z,84.50
2018-11-06T05:35:46.157Z,84.50
2018-11-06T05:38:13.885Z,84.50
2018-11-06T05:40:54.755Z,84.30
2018-11-06T05:43:22.461Z,84.40
2018-11-06T05:45:50.798Z,84.30
2018-11-06T05:48:18.533Z,84.30
2018-11-06T05:50:46.477Z,84.50
2018-11-06T05:53:14.290Z,84.50
2018-11-06T05:55:42.223Z,84.60
2018-11-06T05:58:10.261Z,84.50
2018-11-06T06:00:38.122Z,84.60
2018-11-06T06:03:05.999Z,84.60
2018-11-06T06:05:33.967Z,84.60
2018-11-06T06:08:01.674Z,84.70
2018-11-06T06:10:29.392Z,84.60
2018-11-06T06:12:57.198Z,84.70
2018-11-06T06:15:25.111Z,84.80
2018-11-06T06:17:52.921Z,84.80
2018-11-06T06:20:20.647Z,84.90
2018-11-06T06:22:48.383Z,84.90
2018-11-06T06:25:16.143Z,84.90
2018-11-06T06:27:45.868Z,84.90
2018-11-06T06:30:14.476Z,85.00
2018-11-06T06:32:42.315Z,85.10
2018-11-06T06:35:10.110Z,85.10
2018-11-06T06:37:37.827Z,85.10
2018-11-06T06:40:08.942Z,85.10
2018-11-06T06:42:36.700Z,85.20
2018-11-06T06:45:06.063Z,86.00
2018-11-06T06:47:33.829Z,85.30
2018-11-06T06:50:01.556Z,85.30
2018-11-06T06:52:29.258Z,85.30
2018-11-06T06:54:56.968Z,85.30
2018-11-06T06:57:24.684Z,85.80
2018-11-06T06:59:52.389Z,85.60
2018-11-06T07:02:20.140Z,86.00
2018-11-06T07:04:47.880Z,86.10
2018-11-06T07:07:15.634Z,86.00
2018-11-06T07:09:43.329Z,86.10
2018-11-06T07:12:11.071Z,86.50
2018-11-06T07:14:38.785Z,86.50
2018-11-06T07:17:06.515Z,86.50
2018-11-06T07:19:34.226Z,87.30
2018-11-06T07:22:01.937Z,87.20
2018-11-06T07:24:29.772Z,87.20
2018-11-06T07:26:57.495Z,87.00
2018-11-06T07:29:25.205Z,86.90
2018-11-06T07:31:53.042Z,86.90
2018-11-06T07:34:20.739Z,87.00
2018-11-06T07:36:48.454Z,87.80
2018-11-06T07:39:16.178Z,87.30
2018-11-06T07:41:43.884Z,87.00
2018-11-06T07:44:11.608Z,86.90
2018-11-06T07:46:39.415Z,87.60
2018-11-06T07:49:07.399Z,87.00
2018-11-06T07:51:35.317Z,87.10
2018-11-06T07:54:03.061Z,87.00
2018-11-06T07:56:30.963Z,87.30
2018-11-06T07:58:58.904Z,86.80
2018-11-06T08:01:26.595Z,87.00
2018-11-06T08:03:54.389Z,86.90
2018-11-06T08:06:22.098Z,86.90
2018-11-06T08:08:49.859Z,86.90
2018-11-06T08:11:17.659Z,86.60
2018-11-06T08:13:45.365Z,87.00
2018-11-06T08:16:13.134Z,87.50
2018-11-06T08:18:40.849Z,86.90
2018-11-06T08:21:08.590Z,86.60
2018-11-06T08:23:36.457Z,86.40
2018-11-06T08:26:04.606Z,86.30
2018-11-06T08:28:32.373Z,86.60
2018-11-06T08:31:00.363Z,86.10
2018-11-06T08:33:28.064Z,86.00
2018-11-06T08:35:55.795Z,85.90
2018-11-06T08:38:23.521Z,86.10
2018-11-06T08:40:51.277Z,86.30
2018-11-06T08:43:19.043Z,85.90
2018-11-06T08:45:46.826Z,86.10
2018-11-06T08:48:14.637Z,86.10
2018-11-06T08:50:42.345Z,86.20
2018-11-06T08:53:10.916Z,86.10
2018-11-06T08:55:38.620Z,86.10
2018-11-06T08:58:06.354Z,86.00
2018-11-06T09:00:34.072Z,85.90
2018-11-06T09:03:01.760Z,86.00
2018-11-06T09:05:29.432Z,85.50
2018-11-06T09:07:57.250Z,85.60
2018-11-06T09:10:24.996Z,85.50
2018-11-06T09:12:52.680Z,85.50
2018-11-06T09:15:20.428Z,85.50
2018-11-06T09:17:48.119Z,85.20
2018-11-06T09:20:16.530Z,84.90
2018-11-06T09:22:44.313Z,84.20
2018-11-06T09:25:13.270Z,84.10
2018-11-06T09:27:41.848Z,83.80
2018-11-06T09:30:12.087Z,84.10
2018-11-06T09:32:39.749Z,84.10
2018-11-06T09:35:08.168Z,84.10
2018-11-06T09:37:35.882Z,83.90
2018-11-06T09:40:04.117Z,83.60
2018-11-06T09:42:31.866Z,83.90
2018-11-06T09:44:59.640Z,83.60
2018-11-06T09:47:27.342Z,83.70
2018-11-06T09:49:55.057Z,83.60
2018-11-06T09:52:22.747Z,83.70
2018-11-06T09:54:50.433Z,83.70
2018-11-06T09:57:18.181Z,83.20
2018-11-06T09:59:45.948Z,83.30
2018-11-06T10:02:13.718Z,82.20
2018-11-06T10:04:41.390Z,82.30
2018-11-06T10:07:09.622Z,82.50
2018-11-06T10:09:37.101Z,81.80
2018-11-06T10:12:04.923Z,81.70
2018-11-06T10:14:32.641Z,82.00
2018-11-06T10:17:00.352Z,80.50
2018-11-06T10:19:28.053Z,80.40
2018-11-06T10:21:55.772Z,80.60
2018-11-06T10:24:23.522Z,80.90
2018-11-06T10:26:51.337Z,80.70
2018-11-06T10:29:19.084Z,79.00
2018-11-06T10:31:46.826Z,80.00
2018-11-06T10:34:14.586Z,79.10
2018-11-06T10:36:42.300Z,77.60
2018-11-06T10:39:11.767Z,79.20
2018-11-06T10:41:39.521Z,77.40
2018-11-06T10:44:07.214Z,79.10
2018-11-06T10:46:34.934Z,78.60
2018-11-06T10:49:02.650Z,77.00
2018-11-06T10:51:30.471Z,76.40
2018-11-06T10:53:58.225Z,76.60
2018-11-06T10:56:25.933Z,77.20
2018-11-06T10:58:53.684Z,76.60
2018-11-06T11:01:26.925Z,75.90
2018-11-06T11:04:00.134Z,76.20
2018-11-06T11:06:27.998Z,77.20
2018-11-06T11:08:55.762Z,77.10
2018-11-06T11:11:23.536Z,75.00
2018-11-06T11:13:51.256Z,75.70
2018-11-06T11:16:18.985Z,76.40
2018-11-06T11:18:46.663Z,77.20
2018-11-06T11:21:14.442Z,75.00
2018-11-06T11:23:42.125Z,75.40
2018-11-06T11:26:09.858Z,75.40
2018-11-06T11:28:37.590Z,75.10
2018-11-06T11:31:05.468Z,75.10
2018-11-06T11:33:33.256Z,75.40
2018-11-06T11:36:01.018Z,75.30
2018-11-06T11:38:28.697Z,75.20
2018-11-06T11:40:56.587Z,75.10
2018-11-06T11:43:24.290Z,75.40
2018-11-06T11:45:52.088Z,75.10
2018-11-06T11:48:19.747Z,73.80
2018-11-06T11:50:47.472Z,72.90
2018-11-06T11:53:15.194Z,73.40
2018-11-06T11:55:42.985Z,74.40
2018-11-06T11:58:10.708Z,73.50
2018-11-06T12:00:39.691Z,71.40
2018-11-06T12:03:08.186Z,72.20
2018-11-06T12:05:35.949Z,72.30
2018-11-06T12:08:03.677Z,73.00
2018-11-06T12:10:31.361Z,71.50
2018-11-06T12:12:59.101Z,70.50
2018-11-06T12:15:26.794Z,71.20
2018-11-06T12:17:54.496Z,70.90
2018-11-06T12:20:22.248Z,71.30
2018-11-06T12:22:49.988Z,70.90
2018-11-06T12:25:18.008Z,70.50
2018-11-06T12:27:45.489Z,70.40
2018-11-06T12:30:14.398Z,68.20
2018-11-06T12:32:42.244Z,68.60
2018-11-06T12:35:10.981Z,68.30
2018-11-06T12:37:38.928Z,66.10
2018-11-06T12:40:08.131Z,66.90
2018-11-06T12:42:36.305Z,68.10
2018-11-06T12:45:04.723Z,67.00
2018-11-06T12:47:32.398Z,68.40
2018-11-06T12:50:00.093Z,68.50
2018-11-06T12:52:27.789Z,65.60
2018-11-06T12:54:55.490Z,66.30
2018-11-06T12:57:23.261Z,64.50
2018-11-06T12:59:50.978Z,65.60
2018-11-06T13:02:18.740Z,65.70
2018-11-06T13:04:46.488Z,65.40
2018-11-06T13:07:14.335Z,63.20
2018-11-06T13:09:42.182Z,64.70
2018-11-06T13:12:09.848Z,64.80
2018-11-06T13:14:37.926Z,64.60
2018-11-06T13:17:05.948Z,64.00
2018-11-06T13:19:33.614Z,61.50
2018-11-06T13:22:01.430Z,61.20
2018-11-06T13:24:29.202Z,64.50
2018-11-06T13:26:56.869Z,64.70
2018-11-06T13:29:24.849Z,64.60
2018-11-06T13:31:52.628Z,61.80
2018-11-06T13:34:20.348Z,64.20
2018-11-06T13:36:48.056Z,64.30
2018-11-06T13:39:15.894Z,63.90
2018-11-06T13:41:43.844Z,64.50
2018-11-06T13:44:11.981Z,62.40
2018-11-06T13:46:39.436Z,62.70
2018-11-06T13:49:07.217Z,63.70
2018-11-06T13:51:34.973Z,63.90
2018-11-06T13:54:02.739Z,63.80
2018-11-06T13:56:30.464Z,61.40
2018-11-06T13:58:58.239Z,62.40
2018-11-06T14:01:25.940Z,62.80
2018-11-06T14:06:21.204Z,92.40
2018-11-06T14:08:49.074Z,58.50
2018-11-06T14:11:16.770Z,58.30
2018-11-06T14:13:44.503Z,58.80
2018-11-06T14:16:12.216Z,58.80
2018-11-06T14:18:39.902Z,58.90
2018-11-06T14:21:07.682Z,58.90
2018-11-06T14:23:35.353Z,58.10
2018-11-06T14:26:03.084Z,57.50
2018-11-06T14:28:30.819Z,58.70
2018-11-06T14:30:58.524Z,58.80
2018-11-06T14:33:26.201Z,58.60
2018-11-06T14:35:53.969Z,57.70
2018-11-06T14:38:21.637Z,57.40
2018-11-06T14:40:49.339Z,58.40
2018-11-06T14:43:17.054Z,58.10
2018-11-06T14:45:44.742Z,56.80
2018-11-06T14:48:12.482Z,57.10
2018-11-06T14:50:40.233Z,57.60
2018-11-06T14:53:07.917Z,57.80
2018-11-06T14:55:35.643Z,58.00
2018-11-06T14:58:03.386Z,58.20
2018-11-06T15:00:31.136Z,58.80
2018-11-06T15:02:58.874Z,58.60
2018-11-06T15:05:26.607Z,58.90
2018-11-06T15:07:54.286Z,58.50
2018-11-06T15:10:22.040Z,57.60
2018-11-06T15:12:49.878Z,58.10
2018-11-06T15:15:18.010Z,58.30
2018-11-06T15:17:46.867Z,58.20
2018-11-06T15:20:15.836Z,58.30
2018-11-06T15:22:43.890Z,58.60
2018-11-06T15:25:12.393Z,59.10
2018-11-06T15:27:40.421Z,59.20
2018-11-06T15:30:10.296Z,59.30
2018-11-06T15:32:38.071Z,59.60
2018-11-06T15:35:06.714Z,59.80
2018-11-06T15:37:34.909Z,60.70
2018-11-06T15:40:02.648Z,59.90
2018-11-06T15:42:30.411Z,60.00
2018-11-06T15:44:58.101Z,59.70
2018-11-06T15:47:25.830Z,60.30
2018-11-06T15:49:53.557Z,59.90
2018-11-06T15:54:48.828Z,59.80
2018-11-06T15:57:16.566Z,60.20
2018-11-06T15:59:44.276Z,59.90
2018-11-06T16:02:11.999Z,59.90
2018-11-06T16:04:39.822Z,61.00
2018-11-06T16:07:07.553Z,60.60
2018-11-06T16:09:35.324Z,61.00
2018-11-06T16:12:03.099Z,61.20
2018-11-06T16:14:30.894Z,61.20
2018-11-06T16:16:58.733Z,61.30
2018-11-06T16:19:26.459Z,61.40
2018-11-06T16:21:54.280Z,61.70
2018-11-06T16:24:21.981Z,61.80
2018-11-06T16:26:49.722Z,61.90
2018-11-06T16:29:17.406Z,61.90
2018-11-06T16:31:45.270Z,61.80
2018-11-06T16:34:13.015Z,61.80
2018-11-06T16:36:40.913Z,61.60
2018-11-06T16:39:09.707Z,61.90
2018-11-06T16:41:37.525Z,61.90
2018-11-06T16:44:05.310Z,61.80
2018-11-06T16:46:33.080Z,61.80
2018-11-06T16:49:00.833Z,62.00
2018-11-06T16:51:28.588Z,62.20
2018-11-06T16:53:56.384Z,62.50
2018-11-06T16:56:24.157Z,62.60
2018-11-06T16:58:51.921Z,63.00
2018-11-06T17:01:19.620Z,63.20
2018-11-06T17:03:47.329Z,63.40
2018-11-06T17:06:20.583Z,63.20
2018-11-06T17:08:48.324Z,63.20
2018-11-06T17:11:16.038Z,63.20
2018-11-06T17:13:43.761Z,63.30
2018-11-06T17:16:11.476Z,63.50
2018-11-06T17:18:39.181Z,63.50
2018-11-06T17:21:06.879Z,63.70
2018-11-06T17:23:34.771Z,63.90
2018-11-06T17:26:02.490Z,63.70
2018-11-06T17:28:30.197Z,63.80
2018-11-06T17:30:57.922Z,64.00
2018-11-06T17:33:25.655Z,64.00
2018-11-06T17:35:53.386Z,64.00
2018-11-06T17:38:21.118Z,64.10
2018-11-06T17:40:48.843Z,63.90
2018-11-06T17:43:16.603Z,64.00
2018-11-06T17:45:44.368Z,64.10
2018-11-06T17:48:12.060Z,64.30
2018-11-06T17:50:39.810Z,64.50
2018-11-06T17:53:07.528Z,64.30
2018-11-06T17:55:35.304Z,64.40
2018-11-06T17:58:02.985Z,64.60
2018-11-06T18:00:30.913Z,64.30
2018-11-06T18:02:58.676Z,64.40
2018-11-06T18:05:26.406Z,64.60
2018-11-06T18:07:54.151Z,64.50
2018-11-06T18:10:22.076Z,64.60
2018-11-06T18:12:49.821Z,64.80
2018-11-06T18:15:17.604Z,64.70
2018-11-06T18:17:45.553Z,64.70
2018-11-06T18:20:13.967Z,64.80
2018-11-06T18:22:42.645Z,65.00
2018-11-06T18:25:11.338Z,65.00
2018-11-06T18:27:39.185Z,65.10
2018-11-06T18:30:13.114Z,65.20
2018-11-06T18:32:40.845Z,65.40
2018-11-06T18:35:09.944Z,65.40
2018-11-06T18:37:37.757Z,65.30
2018-11-06T18:40:07.456Z,65.40
2018-11-06T18:42:35.237Z,65.30
2018-11-06T18:45:03.062Z,65.80
2018-11-06T18:47:30.906Z,66.00
2018-11-06T18:49:58.526Z,65.90
2018-11-06T18:52:26.217Z,66.00
2018-11-06T18:54:53.998Z,65.90
2018-11-06T18:57:21.733Z,66.10
2018-11-06T18:59:49.477Z,66.40
2018-11-06T19:02:17.206Z,67.10
2018-11-06T19:04:44.926Z,66.20
2018-11-06T19:07:12.726Z,66.40
2018-11-06T19:09:40.486Z,66.70
2018-11-06T19:12:08.375Z,66.70
2018-11-06T19:14:36.074Z,66.30
2018-11-06T19:17:03.931Z,66.20
2018-11-06T19:19:31.577Z,66.30
2018-11-06T19:21:59.248Z,66.30
2018-11-06T19:24:26.989Z,66.40
2018-11-06T19:26:54.740Z,66.70
2018-11-06T19:29:22.460Z,66.80
2018-11-06T19:31:50.215Z,67.40
2018-11-06T19:34:17.928Z,67.10
2018-11-06T19:36:46.689Z,67.10
2018-11-06T19:39:14.432Z,67.10
2018-11-06T19:41:42.265Z,67.30
2018-11-06T19:44:10.029Z,67.30
2018-11-06T19:46:37.877Z,67.60
2018-11-06T19:49:05.753Z,67.80
2018-11-06T19:51:33.936Z,67.90
2018-11-06T19:54:01.731Z,67.50
2018-11-06T19:56:29.591Z,67.60
2018-11-06T19:58:57.229Z,67.70
2018-11-06T20:01:25.056Z,68.00
2018-11-06T20:03:52.969Z,67.80
2018-11-06T20:06:20.806Z,67.90
2018-11-06T20:08:48.529Z,67.90
2018-11-06T20:11:22.985Z,68.10
2018-11-06T20:13:51.559Z,68.20
2018-11-06T20:16:19.293Z,69.20
2018-11-06T20:18:47.107Z,68.10
2018-11-06T20:21:14.871Z,68.40
2018-11-06T20:23:42.678Z,68.70
2018-11-06T20:26:10.421Z,68.50
2018-11-06T20:28:38.201Z,68.70
2018-11-06T20:31:06.037Z,68.80
2018-11-06T20:33:33.957Z,68.70
2018-11-06T20:36:02.552Z,69.10
2018-11-06T20:38:30.324Z,69.20
2018-11-06T20:40:58.889Z,69.00
2018-11-06T20:43:26.640Z,69.50
2018-11-06T20:45:54.381Z,69.30
2018-11-06T20:48:22.182Z,69.10
2018-11-06T20:50:49.881Z,69.40
2018-11-06T20:53:17.566Z,69.10
2018-11-06T20:55:45.380Z,69.20
2018-11-06T20:58:13.114Z,69.50
2018-11-06T21:00:40.837Z,69.30
2018-11-06T21:03:08.578Z,69.20
2018-11-06T21:05:36.321Z,69.20
2018-11-06T21:08:04.093Z,69.30
2018-11-06T21:10:31.793Z,69.30
2018-11-06T21:12:59.661Z,69.30
2018-11-06T21:15:27.414Z,69.40
2018-11-06T21:17:55.245Z,69.50
2018-11-06T21:20:22.954Z,69.50
2018-11-06T21:22:50.570Z,69.60
2018-11-06T21:25:18.383Z,69.70
2018-11-06T21:27:46.086Z,69.80
2018-11-06T21:30:15.653Z,70.30
2018-11-06T21:32:44.538Z,70.20
2018-11-06T21:35:12.307Z,70.20
2018-11-06T21:37:40.288Z,70.20
2018-11-06T21:40:11.498Z,70.40
2018-11-06T21:42:39.794Z,70.50
2018-11-06T21:45:08.481Z,70.30
2018-11-06T21:47:36.284Z,70.60
2018-11-06T21:50:05.297Z,70.10
2018-11-06T21:52:33.014Z,70.30
2018-11-06T21:55:00.708Z,70.50
2018-11-06T21:57:28.424Z,70.40
2018-11-06T21:59:56.127Z,70.40
2018-11-06T22:02:23.832Z,70.70
2018-11-06T22:04:51.675Z,70.60
2018-11-06T22:07:19.416Z,70.70
2018-11-06T22:09:47.092Z,70.60
2018-11-06T22:12:14.858Z,70.60
2018-11-06T22:14:42.522Z,70.60
2018-11-06T22:17:10.305Z,70.60
2018-11-06T22:19:38.009Z,70.60
2018-11-06T22:22:05.839Z,70.70
2018-11-06T22:24:33.537Z,70.70
2018-11-06T22:27:01.251Z,70.80
2018-11-06T22:29:28.993Z,70.80
2018-11-06T22:31:56.804Z,70.90
2018-11-06T22:34:24.527Z,70.70
2018-11-06T22:36:52.330Z,70.90
2018-11-06T22:39:19.972Z,70.80
2018-11-06T22:41:47.669Z,70.80
2018-11-06T22:44:15.441Z,70.90
2018-11-06T22:46:43.237Z,70.90
2018-11-06T22:49:11.000Z,71.40
2018-11-06T22:51:38.738Z,71.70
2018-11-06T22:54:06.473Z,71.40
2018-11-06T22:56:34.201Z,71.20
2018-11-06T22:59:01.998Z,71.30
2018-11-06T23:01:29.705Z,72.30
2018-11-06T23:03:57.456Z,72.90
2018-11-06T23:06:25.343Z,72.90
2018-11-06T23:08:52.963Z,71.90
2018-11-06T23:11:20.701Z,72.30
2018-11-06T23:13:48.449Z,72.20
2018-11-06T23:16:16.161Z,72.20
2018-11-06T23:18:43.931Z,72.10
2018-11-06T23:21:11.671Z,72.50
2018-11-06T23:23:39.363Z,72.60
2018-11-06T23:26:07.078Z,72.80
2018-11-06T23:28:34.795Z,72.40
2018-11-06T23:31:02.481Z,72.40
2018-11-06T23:33:30.224Z,72.10
2018-11-06T23:35:57.945Z,71.90
2018-11-06T23:38:25.658Z,71.80
2018-11-06T23:40:53.437Z,71.80
2018-11-06T23:43:21.196Z,71.70
2018-11-06T23:45:48.925Z,71.70
2018-11-06T23:48:16.657Z,71.90
2018-11-06T23:50:44.387Z,71.80
2018-11-06T23:53:12.123Z,72.50
2018-11-06T23:55:39.844Z,72.40
2018-11-06T23:58:07.541Z,72.40
